Time;durP1;ratioP1;P1;durP2;ratioP2;P2;SDS_P1;SDS_P2;PMS_P1;PMS_P2;Temp;Humidity;BMP_temperature;BMP_pressure;BME280_temperature;BME280_humidity;BME280_pressure;Samples;Min_cycle;Max_cycle;Signal;HPM_P1;HPM_P2
2023/04/19 00:01:02;;;;;;;19.85;15.38;;;;;;;8.45;76.37;102603.94;4905139;29;20059;-75
2023/04/19 00:03:29;;;;;;;19.35;16.15;;;;;;;8.47;76.40;102604.84;4887223;29;20112;-74
2023/04/19 00:05:57;;;;;;;19.52;15.68;;;;;;;8.52;76.50;102605.88;4889003;29;20416;-70
2023/04/19 00:08:23;;;;;;;21.58;15.52;;;;;;;8.53;76.29;102607.59;4920795;29;20039;-70
2023/04/19 00:10:49;;;;;;;21.58;16.70;;;;;;;8.54;76.56;102604.16;4879023;29;20071;-70
2023/04/19 00:13:15;;;;;;;20.20;16.55;;;;;;;8.57;76.57;102603.34;4873221;29;20032;-70
2023/04/19 00:15:40;;;;;;;19.70;16.20;;;;;;;8.57;76.33;102599.00;4879731;29;20092;-70
2023/04/19 00:18:06;;;;;;;17.88;15.70;;;;;;;8.60;76.54;102593.84;4871955;29;20062;-70
2023/04/19 00:20:31;;;;;;;20.73;16.85;;;;;;;8.59;76.63;102594.72;4866736;29;20040;-70
2023/04/19 00:22:58;;;;;;;21.63;15.23;;;;;;;8.61;76.35;102597.38;4913010;29;20044;-70
2023/04/19 00:25:23;;;;;;;18.45;15.48;;;;;;;8.61;76.83;102590.41;4909195;29;20478;-70
2023/04/19 00:27:49;;;;;;;19.27;16.38;;;;;;;8.62;76.23;102586.94;4894094;29;20071;-70
2023/04/19 00:30:14;;;;;;;18.25;16.17;;;;;;;8.64;76.45;102589.59;4910583;29;20044;-70
2023/04/19 00:32:40;;;;;;;18.13;15.70;;;;;;;8.67;76.57;102595.75;4886844;29;20111;-70
2023/04/19 00:35:08;;;;;;;19.27;16.23;;;;;;;8.67;76.09;102585.31;4898824;29;20044;-70
2023/04/19 00:37:33;;;;;;;18.17;15.60;;;;;;;8.66;77.17;102588.78;4894744;29;20044;-74
2023/04/19 00:39:59;;;;;;;20.85;16.55;;;;;;;8.66;76.91;102591.41;4899366;29;20209;-75
2023/04/19 00:42:24;;;;;;;18.45;15.82;;;;;;;8.68;76.76;102591.44;4890854;29;20118;-70
2023/04/19 00:44:50;;;;;;;21.20;15.80;;;;;;;8.69;76.75;102593.19;4890318;29;20114;-70
2023/04/19 00:47:16;;;;;;;19.08;15.52;;;;;;;8.69;76.99;102590.56;4864434;29;20403;-71
2023/04/19 00:49:42;;;;;;;19.85;15.88;;;;;;;8.69;77.12;102593.19;4867772;29;20043;-70
2023/04/19 00:52:07;;;;;;;17.27;14.95;;;;;;;8.70;76.95;102594.97;4885695;29;20040;-70
2023/04/19 00:54:33;;;;;;;22.40;15.70;;;;;;;8.67;77.20;102593.16;4878395;29;20119;-74
2023/04/19 00:56:58;;;;;;;21.65;16.33;;;;;;;8.66;77.34;102583.56;4864442;29;20036;-74
2023/04/19 00:59:24;;;;;;;21.60;16.13;;;;;;;8.66;77.62;102587.88;4894909;29;20096;-75
2023/04/19 01:01:50;;;;;;;19.05;14.93;;;;;;;8.68;76.96;102588.81;4887773;29;20497;-74
2023/04/19 01:04:15;;;;;;;20.20;16.23;;;;;;;8.69;77.13;102582.72;4885202;29;20048;-74
2023/04/19 01:06:41;;;;;;;19.73;15.93;;;;;;;8.69;77.50;102587.09;4880102;29;20412;-74
2023/04/19 01:09:08;;;;;;;19.77;15.68;;;;;;;8.70;77.40;102583.63;4874298;29;20159;-74
2023/04/19 01:11:33;;;;;;;19.27;15.60;;;;;;;8.69;77.36;102580.13;4898777;29;20036;-74
2023/04/19 01:13:59;;;;;;;21.55;15.88;;;;;;;8.68;77.38;102575.75;4898191;29;20096;-74
2023/04/19 01:16:27;;;;;;;21.27;16.20;;;;;;;8.69;77.53;102574.88;4898450;29;20044;-74
2023/04/19 01:18:53;;;;;;;18.38;14.52;;;;;;;8.71;77.62;102577.56;4878432;29;20098;-75
2023/04/19 01:21:19;;;;;;;19.55;16.75;;;;;;;8.71;78.02;102574.97;4910219;29;20036;-74
2023/04/19 01:23:44;;;;;;;20.13;15.32;;;;;;;8.73;77.55;102579.34;4882113;29;20066;-70
2023/04/19 01:26:10;;;;;;;21.15;16.23;;;;;;;8.73;77.64;102586.31;4888781;29;20036;-70
2023/04/19 01:28:35;;;;;;;21.33;16.20;;;;;;;8.75;77.97;102575.06;4896663;29;20043;-71
2023/04/19 01:31:01;;;;;;;20.20;15.52;;;;;;;8.77;78.61;102580.31;4877621;29;20043;-71
2023/04/19 01:33:27;;;;;;;21.73;16.48;;;;;;;8.77;78.39;102577.69;4899157;29;20152;-70
2023/04/19 01:35:52;;;;;;;18.15;16.00;;;;;;;8.78;78.68;102569.91;4896411;29;20449;-70
2023/04/19 01:38:17;;;;;;;20.40;16.23;;;;;;;8.79;78.94;102576.91;4880861;29;20393;-70
2023/04/19 01:40:43;;;;;;;18.98;15.60;;;;;;;8.82;79.04;102568.22;4880120;29;20047;-71
2023/04/19 01:43:13;;;;;;;19.00;15.85;;;;;;;8.85;78.80;102570.94;4897510;29;20353;-71
2023/04/19 01:45:39;;;;;;;21.30;16.42;;;;;;;8.87;79.23;102564.00;4880856;29;20032;-70
2023/04/19 01:48:05;;;;;;;20.38;16.15;;;;;;;8.90;78.60;102569.28;4895582;29;20053;-70
2023/04/19 01:50:31;;;;;;;19.58;15.45;;;;;;;8.92;79.52;102565.00;4897078;29;20710;-70
2023/04/19 01:52:57;;;;;;;20.23;16.27;;;;;;;8.97;79.10;102563.34;4894760;29;20047;-70
2023/04/19 01:55:23;;;;;;;18.85;15.85;;;;;;;9.00;79.10;102563.41;4912252;29;20126;-70
2023/04/19 01:57:48;;;;;;;21.80;16.35;;;;;;;9.04;78.77;102553.91;4896336;29;20044;-70
2023/04/19 02:00:14;;;;;;;21.05;16.58;;;;;;;9.10;78.99;102553.19;4868244;29;20100;-70
2023/04/19 02:02:40;;;;;;;20.55;16.00;;;;;;;9.12;79.06;102559.31;4887396;29;20507;-70
2023/04/19 02:05:09;;;;;;;21.63;16.88;;;;;;;9.15;78.69;102551.53;4872138;29;20036;-70
2023/04/19 02:07:34;;;;;;;20.63;15.68;;;;;;;9.16;78.96;102555.91;4898530;29;20047;-70
2023/04/19 02:10:00;;;;;;;22.27;16.65;;;;;;;9.15;79.01;102557.66;4879050;29;20048;-74
2023/04/19 02:12:32;;;;;;;22.98;16.00;;;;;;;9.10;79.55;102550.56;4871575;29;20123;-75
2023/04/19 02:14:58;;;;;;;21.08;16.92;;;;;;;9.15;78.84;102556.75;4881962;29;20044;-74
2023/04/19 02:17:25;;;;;;;21.42;16.58;;;;;;;9.15;78.90;102554.13;4898210;29;20055;-75
2023/04/19 02:19:51;;;;;;;21.75;15.57;;;;;;;9.15;78.78;102561.97;4883951;29;20115;-74
2023/04/19 02:22:20;;;;;;;20.02;16.25;;;;;;;9.14;79.30;102552.41;4885067;29;20273;-74
2023/04/19 02:24:46;;;;;;;19.08;15.35;;;;;;;9.14;79.12;102555.88;4898647;29;20115;-74
2023/04/19 02:27:12;;;;;;;21.83;16.08;;;;;;;9.11;79.25;102555.81;4890239;29;20036;-74
2023/04/19 02:29:38;;;;;;;21.02;15.88;;;;;;;9.12;79.76;102559.31;4897169;29;20047;-74
2023/04/19 02:32:05;;;;;;;23.67;15.82;;;;;;;9.10;79.82;102553.19;4897450;29;20036;-74
2023/04/19 02:34:34;;;;;;;19.75;16.65;;;;;;;9.10;79.90;102554.03;4892418;29;20547;-74
2023/04/19 02:37:00;;;;;;;17.92;15.27;;;;;;;9.10;79.59;102551.44;4883157;29;20548;-75
2023/04/19 02:39:26;;;;;;;23.15;16.35;;;;;;;9.11;79.46;102549.72;4883168;29;20156;-74
2023/04/19 02:41:51;;;;;;;21.00;15.80;;;;;;;9.09;79.87;102546.16;4870788;29;20410;-74
2023/04/19 02:44:17;;;;;;;20.63;16.27;;;;;;;9.06;79.70;102543.50;4880526;29;20184;-74
2023/04/19 02:46:52;;;;;;;20.25;16.33;;;;;;;9.03;80.18;102552.16;4864135;29;20511;-74
2023/04/19 02:49:18;;;;;;;19.55;15.73;;;;;;;9.00;80.18;102559.94;4892657;29;20048;-75
2023/04/19 02:51:44;;;;;;;20.10;16.15;;;;;;;8.97;80.29;102559.88;4893751;29;20051;-74
2023/04/19 02:54:11;;;;;;;24.08;16.00;;;;;;;8.96;80.40;102555.47;4900872;29;20040;-74
2023/04/19 02:56:36;;;;;;;20.48;15.65;;;;;;;8.95;80.11;102553.69;4915944;29;20067;-75
2023/04/19 02:59:03;;;;;;;18.25;14.43;;;;;;;8.93;80.87;102565.88;4895001;29;20151;-74
2023/04/19 03:01:29;;;;;;;17.48;15.00;;;;;;;8.91;79.84;102558.00;4862777;29;20104;-74
2023/04/19 03:03:55;;;;;;;18.73;14.73;;;;;;;8.90;80.30;102556.22;4898819;29;20039;-74
2023/04/19 03:06:20;;;;;;;17.02;14.43;;;;;;;8.89;80.21;102557.06;4897680;29;20043;-74
2023/04/19 03:08:46;;;;;;;18.85;15.15;;;;;;;8.88;80.19;102557.03;4892144;29;20484;-75
2023/04/19 03:11:12;;;;;;;16.90;13.15;;;;;;;8.88;80.33;102552.69;4866160;29;20358;-75
2023/04/19 03:13:39;;;;;;;19.80;14.25;;;;;;;8.85;80.26;102547.41;4881981;29;20059;-75
2023/04/19 03:16:06;;;;;;;16.73;14.18;;;;;;;8.86;80.11;102549.16;4874528;29;20043;-74
2023/04/19 03:18:32;;;;;;;18.67;14.13;;;;;;;8.88;80.47;102555.31;4868493;29;20092;-75
2023/04/19 03:20:57;;;;;;;17.95;14.00;;;;;;;8.86;80.54;102550.88;4883834;29;20054;-74
2023/04/19 03:23:23;;;;;;;17.63;14.35;;;;;;;8.84;80.77;102546.50;4902306;29;20047;-75
2023/04/19 03:25:48;;;;;;;19.48;14.63;;;;;;;8.83;80.09;102542.16;4898100;29;20576;-74
2023/04/19 03:28:14;;;;;;;20.27;13.95;;;;;;;8.82;80.76;102544.69;4901323;29;20485;-74
2023/04/19 03:30:40;;;;;;;17.60;13.98;;;;;;;8.82;80.80;102552.53;4912281;29;20408;-74
2023/04/19 03:33:05;;;;;;;17.88;14.23;;;;;;;8.79;80.48;102542.91;4887820;29;20051;-75
2023/04/19 03:35:31;;;;;;;19.23;13.43;;;;;;;8.78;80.06;102548.13;4871062;29;20051;-74
2023/04/19 03:37:57;;;;;;;17.13;13.88;;;;;;;8.78;80.84;102545.50;4867743;29;20195;-75
2023/04/19 03:40:22;;;;;;;18.92;14.20;;;;;;;8.75;80.61;102538.47;4896638;29;20072;-74
2023/04/19 03:42:48;;;;;;;17.92;13.98;;;;;;;8.72;81.23;102545.34;4878877;29;20056;-75
2023/04/19 03:45:13;;;;;;;18.27;13.80;;;;;;;8.71;81.03;102540.97;4873595;29;20119;-74
2023/04/19 03:47:38;;;;;;;17.67;14.18;;;;;;;8.67;81.25;102540.88;4900899;29;20091;-71
2023/04/19 03:50:04;;;;;;;17.30;13.60;;;;;;;8.63;80.94;102539.06;4899634;29;20107;-70
2023/04/19 03:52:30;;;;;;;16.40;13.10;;;;;;;8.61;81.09;102547.72;4886589;29;20054;-71
2023/04/19 03:54:55;;;;;;;18.75;14.27;;;;;;;8.59;80.87;102552.91;4898700;29;20136;-71
2023/04/19 03:57:21;;;;;;;17.38;14.38;;;;;;;8.57;81.18;102551.09;4916760;29;20048;-70
2023/04/19 03:59:46;;;;;;;16.95;12.60;;;;;;;8.58;80.86;102542.41;4869159;29;20056;-75
2023/04/19 04:02:12;;;;;;;16.40;13.45;;;;;;;8.52;80.93;102542.25;4899780;29;20048;-75
2023/04/19 04:04:37;;;;;;;17.27;13.98;;;;;;;8.53;81.15;102542.28;4871354;29;20099;-74
2023/04/19 04:07:03;;;;;;;17.65;13.43;;;;;;;8.48;81.64;102546.53;4883710;29;20476;-74
2023/04/19 04:09:28;;;;;;;16.75;13.23;;;;;;;8.46;81.44;102550.81;4917394;29;20194;-75
2023/04/19 04:11:54;;;;;;;18.25;13.30;;;;;;;8.46;81.23;102550.81;4889273;29;20047;-74
2023/04/19 04:14:19;;;;;;;16.70;12.57;;;;;;;8.42;81.34;102552.47;4875497;29;20032;-75
2023/04/19 04:16:44;;;;;;;16.67;12.52;;;;;;;8.39;81.22;102543.66;4869673;29;20143;-74
2023/04/19 04:19:10;;;;;;;17.27;12.13;;;;;;;8.38;81.45;102547.13;4907340;29;20123;-74
2023/04/19 04:21:35;;;;;;;16.35;11.95;;;;;;;8.36;80.73;102535.75;4890010;29;20052;-75
2023/04/19 04:24:02;;;;;;;17.40;12.20;;;;;;;8.31;80.67;102546.09;4865915;29;20056;-74
2023/04/19 04:26:32;;;;;;;14.82;12.15;;;;;;;8.25;80.82;102545.94;4878787;29;20048;-74
2023/04/19 04:28:58;;;;;;;;;;;;;;;8.27;80.66;102555.56;4884510;29;20042;-74
2023/04/19 04:31:24;;;;;;;14.10;11.10;;;;;;;8.14;80.52;102556.09;4898048;29;20274;-74
2023/04/19 04:33:52;;;;;;;13.57;10.43;;;;;;;8.08;80.09;102551.59;4881706;29;20051;-74
2023/04/19 04:36:17;;;;;;;16.80;11.20;;;;;;;8.02;80.51;102556.66;4871824;29;20131;-75
2023/04/19 04:38:42;;;;;;;16.33;11.25;;;;;;;7.96;79.72;102562.59;4868383;29;20471;-75
2023/04/19 04:41:08;;;;;;;14.65;10.48;;;;;;;7.89;80.16;102560.69;4864060;29;20056;-74
2023/04/19 04:43:33;;;;;;;13.93;10.07;;;;;;;7.86;80.22;102570.13;4882787;29;20036;-75
2023/04/19 04:46:00;;;;;;;14.68;10.50;;;;;;;7.78;79.79;102562.09;4869422;29;20413;-74
2023/04/19 04:48:26;;;;;;;12.38;10.07;;;;;;;7.74;80.26;102563.75;4872384;29;20493;-74
2023/04/19 04:50:51;;;;;;;14.18;10.40;;;;;;;7.69;79.51;102564.47;4896790;29;20227;-74
2023/04/19 04:53:16;;;;;;;13.18;10.20;;;;;;;7.67;79.50;102563.53;4869437;29;20040;-74
2023/04/19 04:55:42;;;;;;;15.10;9.07;;;;;;;7.61;79.83;102562.53;4878252;29;20405;-74
2023/04/19 04:58:10;;;;;;;13.90;9.80;;;;;;;7.61;79.80;102561.63;4897589;29;20055;-75
2023/04/19 05:00:36;;;;;;;13.32;9.88;;;;;;;7.58;80.11;102561.56;4869030;29;20040;-74
2023/04/19 05:03:01;;;;;;;14.52;10.32;;;;;;;7.55;81.06;102564.94;4869194;29;20036;-71
2023/04/19 05:05:27;;;;;;;15.25;10.27;;;;;;;7.53;80.19;102553.59;4880623;29;20052;-75
2023/04/19 05:07:52;;;;;;;15.02;10.13;;;;;;;7.50;81.04;102555.22;4863836;29;20044;-74
2023/04/19 05:10:18;;;;;;;13.63;10.55;;;;;;;7.48;80.96;102557.78;4878181;29;20524;-70
2023/04/19 05:12:43;;;;;;;16.42;11.05;;;;;;;7.43;81.54;102555.06;4865505;29;20051;-71
2023/04/19 05:15:10;;;;;;;14.95;10.95;;;;;;;7.41;81.85;102567.19;4881024;29;20482;-71
2023/04/19 05:17:36;;;;;;;14.60;10.55;;;;;;;7.40;81.29;102569.75;4895153;29;20048;-71
2023/04/19 05:20:01;;;;;;;14.32;10.63;;;;;;;7.36;81.40;102563.53;4899989;29;20048;-71
2023/04/19 05:22:27;;;;;;;15.30;11.27;;;;;;;7.30;81.29;102563.38;4881213;29;20140;-71
2023/04/19 05:24:52;;;;;;;14.25;10.23;;;;;;;7.36;81.07;102570.50;4883620;29;20043;-70
2023/04/19 05:27:17;;;;;;;14.27;10.38;;;;;;;7.34;81.13;102569.53;4894753;29;20064;-71
2023/04/19 05:29:43;;;;;;;14.88;11.25;;;;;;;7.33;81.73;102573.88;4881742;29;20036;-70
2023/04/19 05:32:09;;;;;;;15.63;10.68;;;;;;;7.34;81.92;102579.97;4882633;29;20039;-70
2023/04/19 05:34:35;;;;;;;13.57;10.48;;;;;;;7.33;80.93;102576.50;4905295;29;20372;-71
2023/04/19 05:37:02;;;;;;;15.43;10.43;;;;;;;7.38;81.22;102576.63;4898422;29;21688;-71
2023/04/19 05:39:27;;;;;;;11.75;9.52;;;;;;;7.41;80.55;102571.50;4906550;29;20497;-71
2023/04/19 05:41:53;;;;;;;14.93;10.18;;;;;;;7.42;79.83;102566.31;4894706;29;20060;-71
2023/04/19 05:44:18;;;;;;;15.20;9.30;;;;;;;7.47;79.82;102574.31;4868375;29;20043;-71
2023/04/19 05:46:44;;;;;;;12.82;8.98;;;;;;;7.50;79.24;102571.78;4896970;29;20092;-71
2023/04/19 05:49:09;;;;;;;14.35;9.15;;;;;;;7.57;78.65;102572.81;4885805;29;20036;-70
2023/04/19 05:51:35;;;;;;;13.32;8.48;;;;;;;7.60;79.04;102573.81;4877850;29;20058;-71
2023/04/19 05:54:00;;;;;;;11.15;8.45;;;;;;;7.66;77.44;102572.19;4886882;29;20036;-70
2023/04/19 05:56:26;;;;;;;13.20;8.27;;;;;;;7.71;77.33;102579.31;4882019;29;20054;-71
2023/04/19 05:58:51;;;;;;;10.23;8.05;;;;;;;7.75;75.86;102564.63;4886656;29;20496;-71
2023/04/19 06:01:17;;;;;;;14.27;8.10;;;;;;;7.84;75.04;102567.47;4914371;29;20051;-71
2023/04/19 06:03:42;;;;;;;10.05;7.85;;;;;;;8.00;73.29;102575.75;4897999;29;20052;-71
2023/04/19 06:06:08;;;;;;;13.82;8.57;;;;;;;8.11;72.42;102587.34;4861578;29;20047;-72
2023/04/19 06:08:33;;;;;;;13.60;7.80;;;;;;;8.16;71.95;102575.31;4899299;29;20028;-75
2023/04/19 06:11:01;;;;;;;16.08;8.18;;;;;;;8.22;70.13;102580.69;4868627;29;20052;-76
2023/04/19 06:13:26;;;;;;;12.48;7.70;;;;;;;8.28;71.12;102575.63;4898886;29;20044;-75
2023/04/19 06:15:51;;;;;;;10.82;8.07;;;;;;;8.44;68.96;102571.69;4868826;29;20444;-75
2023/04/19 06:18:17;;;;;;;13.02;7.75;;;;;;;8.52;68.80;102579.72;4881864;29;20044;-76
2023/04/19 06:20:43;;;;;;;10.98;7.68;;;;;;;8.50;68.79;102576.19;4891139;29;20055;-75
2023/04/19 06:23:11;;;;;;;9.55;7.18;;;;;;;8.52;68.80;102582.34;4897750;29;20036;-76
2023/04/19 06:25:37;;;;;;;10.63;7.20;;;;;;;8.73;67.37;102581.09;4886249;29;21651;-75
2023/04/19 06:28:02;;;;;;;9.98;7.68;;;;;;;9.00;65.97;102579.09;4896703;29;20096;-76
2023/04/19 06:30:28;;;;;;;11.15;7.78;;;;;;;9.25;66.45;102578.78;4878539;29;20099;-76
2023/04/19 06:32:53;;;;;;;9.23;6.85;;;;;;;9.49;63.86;102581.03;4872604;29;20046;-75
2023/04/19 06:35:19;;;;;;;8.75;6.68;;;;;;;9.79;65.91;102578.13;4899172;29;20345;-75
2023/04/19 06:37:44;;;;;;;8.88;6.75;;;;;;;9.90;62.84;102583.59;4907973;29;20345;-77
2023/04/19 06:40:12;;;;;;;9.45;6.78;;;;;;;10.19;64.19;102588.47;4907666;29;20040;-75
2023/04/19 06:42:38;;;;;;;10.43;7.03;;;;;;;10.28;61.37;102579.91;4899070;29;20103;-76
2023/04/19 06:45:04;;;;;;;10.77;6.93;;;;;;;10.40;60.32;102578.41;4896752;29;20044;-75
2023/04/19 06:47:30;;;;;;;10.63;7.43;;;;;;;10.43;59.58;102581.91;4904800;29;20036;-76
2023/04/19 06:50:15;;;;;;;12.75;6.75;;;;;;;10.55;58.70;102582.13;4898771;29;20058;-77
2023/04/19 06:52:41;;;;;;;11.75;7.13;;;;;;;10.67;59.82;102579.69;4868162;29;20454;-75
2023/04/19 06:55:07;;;;;;;10.13;6.72;;;;;;;10.78;58.32;102589.50;4902068;29;20036;-77
2023/04/19 06:57:33;;;;;;;10.55;6.95;;;;;;;10.90;57.64;102579.16;4891048;29;20044;-71
2023/04/19 07:00:00;;;;;;;10.40;6.30;;;;;;;11.01;56.87;102577.56;4893133;29;20136;-72
2023/04/19 07:02:25;;;;;;;8.68;5.93;;;;;;;11.07;57.09;102577.66;4882337;29;20101;-73
2023/04/19 07:04:50;;;;;;;8.00;6.85;;;;;;;11.32;57.72;102579.72;4881749;29;20044;-71
2023/04/19 07:07:16;;;;;;;11.63;7.32;;;;;;;11.41;55.44;102572.88;4878046;29;20044;-72
2023/04/19 07:09:41;;;;;;;8.93;6.13;;;;;;;11.43;54.24;102573.78;4915066;29;20051;-72
2023/04/19 07:12:07;;;;;;;8.43;6.50;;;;;;;11.55;53.99;102569.50;4867991;29;20516;-72
2023/04/19 07:14:32;;;;;;;11.35;7.35;;;;;;;11.61;54.35;102578.34;4895026;29;20068;-71
2023/04/19 07:16:58;;;;;;;8.40;6.28;;;;;;;11.59;53.13;102572.22;4882643;29;20032;-72
2023/04/19 07:19:23;;;;;;;10.55;6.35;;;;;;;11.70;53.46;102569.69;4912495;29;20119;-72
2023/04/19 07:21:50;;;;;;;9.77;6.50;;;;;;;11.83;53.07;102575.97;4893642;29;20044;-72
2023/04/19 07:24:16;;;;;;;8.70;6.25;;;;;;;11.93;52.16;102571.69;4907556;29;20039;-71
2023/04/19 07:26:42;;;;;;;8.18;5.90;;;;;;;11.95;50.85;102570.00;4891536;29;20131;-72
2023/04/19 07:29:08;;;;;;;11.43;6.30;;;;;;;11.95;52.41;102575.25;4896522;29;20040;-72
2023/04/19 07:31:34;;;;;;;10.88;6.68;;;;;;;12.15;52.75;102571.94;4875191;29;20107;-71
2023/04/19 07:33:59;;;;;;;7.45;6.03;;;;;;;12.16;50.99;102571.97;4883088;29;20044;-72
2023/04/19 07:36:25;;;;;;;9.27;6.78;;;;;;;12.20;50.29;102584.25;4866633;29;20044;-72
2023/04/19 07:38:50;;;;;;;9.25;5.95;;;;;;;12.17;50.23;102580.72;4884254;29;20192;-72
2023/04/19 07:41:16;;;;;;;10.02;6.63;;;;;;;12.33;51.03;102574.75;4874581;29;20044;-71
2023/04/19 07:43:42;;;;;;;10.35;6.30;;;;;;;12.49;51.90;102565.22;4881899;29;20115;-72
2023/04/19 07:46:12;;;;;;;9.07;6.22;;;;;;;12.60;51.64;102581.09;4882973;29;20176;-71
2023/04/19 07:48:37;;;;;;;8.65;6.25;;;;;;;12.75;51.04;102568.03;4903889;29;20515;-71
2023/04/19 07:51:15;;;;;;;8.95;6.05;;;;;;;13.08;49.12;102579.66;4882079;29;20052;-72
2023/04/19 07:53:42;;;;;;;9.38;6.47;;;;;;;12.91;48.65;102571.66;4892518;29;20059;-76
2023/04/19 07:56:08;;;;;;;11.05;6.13;;;;;;;12.78;47.53;102570.69;4898134;29;20395;-76
2023/04/19 07:58:38;;;;;;;9.02;6.25;;;;;;;12.82;47.92;102576.88;4896533;29;20139;-77
2023/04/19 08:01:04;;;;;;;7.65;5.82;;;;;;;12.82;47.24;102567.22;4903286;29;20039;-77
2023/04/19 08:03:30;;;;;;;9.13;6.10;;;;;;;12.94;47.48;102561.16;4859370;29;20047;-76
2023/04/19 08:05:56;;;;;;;9.90;5.57;;;;;;;12.95;47.32;102565.53;4903448;29;20043;-76
2023/04/19 08:08:24;;;;;;;9.85;5.93;;;;;;;13.22;49.04;102576.22;4884556;29;20040;-76
2023/04/19 08:10:53;;;;;;;13.38;6.22;;;;;;;13.25;47.47;102577.09;4904685;29;20048;-77
2023/04/19 08:13:19;;;;;;;9.98;6.68;;;;;;;13.41;47.55;102583.34;4878250;29;20044;-76
2023/04/19 08:15:46;;;;;;;8.85;5.38;;;;;;;13.39;47.13;102571.94;4872878;29;20051;-75
2023/04/19 08:18:12;;;;;;;9.05;5.90;;;;;;;13.60;45.47;102572.91;4877148;29;20101;-75
2023/04/19 08:20:37;;;;;;;8.85;6.10;;;;;;;13.59;44.16;102574.66;4880204;29;20100;-75
2023/04/19 08:23:05;;;;;;;11.75;6.25;;;;;;;13.52;43.31;102571.13;4869762;29;20632;-75
2023/04/19 08:25:30;;;;;;;9.02;5.93;;;;;;;13.56;43.76;102561.47;4885429;29;20426;-75
2023/04/19 08:27:57;;;;;;;9.27;5.68;;;;;;;13.85;46.15;102574.72;4866144;29;20063;-75
2023/04/19 08:30:23;;;;;;;10.50;5.35;;;;;;;13.78;43.14;102577.34;4879975;29;20044;-76
2023/04/19 08:32:49;;;;;;;12.57;5.60;;;;;;;13.73;43.58;102569.41;4907517;29;20036;-75
2023/04/19 08:35:15;;;;;;;10.00;5.88;;;;;;;14.06;44.88;102569.50;4888789;29;20051;-76
2023/04/19 08:37:41;;;;;;;7.72;5.20;;;;;;;13.96;43.50;102577.38;4896099;29;20032;-75
2023/04/19 08:40:10;;;;;;;7.10;5.35;;;;;;;13.58;42.70;102570.25;4904681;29;20091;-77
2023/04/19 08:42:35;;;;;;;6.60;4.93;;;;;;;13.51;41.74;102560.56;4900812;29;20100;-76
2023/04/19 08:45:04;;;;;;;7.05;5.05;;;;;;;13.73;43.01;102563.28;4912373;29;20064;-75
2023/04/19 08:47:34;;;;;;;8.30;4.88;;;;;;;13.55;42.58;102561.44;4898358;29;20040;-75
2023/04/19 08:50:02;;;;;;;6.53;4.45;;;;;;;13.72;42.26;102562.41;4881907;29;20062;-75
2023/04/19 08:52:29;;;;;;;7.40;4.35;;;;;;;13.66;42.39;102557.09;4920836;29;20063;-75
2023/04/19 08:54:55;;;;;;;8.98;4.47;;;;;;;13.85;43.01;102552.78;4884440;29;20118;-75
2023/04/19 08:57:20;;;;;;;10.05;4.00;;;;;;;13.48;41.67;102558.81;4900325;29;20500;-77
2023/04/19 08:59:49;;;;;;;8.43;4.57;;;;;;;13.24;41.90;102569.22;4884801;29;20079;-76
2023/04/19 09:02:16;;;;;;;6.38;4.38;;;;;;;13.18;43.14;102544.59;4873562;29;20052;-75
2023/04/19 09:04:41;;;;;;;6.32;4.10;;;;;;;13.34;43.67;102549.94;4911989;29;20408;-75
2023/04/19 09:07:07;;;;;;;6.45;4.18;;;;;;;13.48;42.83;102556.16;4912645;29;20036;-76
2023/04/19 09:09:35;;;;;;;7.95;4.22;;;;;;;13.61;42.82;102556.22;4914743;29;20416;-71
2023/04/19 09:12:01;;;;;;;8.32;4.13;;;;;;;13.25;38.88;102561.31;4900983;29;20047;-71
2023/04/19 09:14:27;;;;;;;7.45;3.97;;;;;;;13.13;41.69;102562.16;4899948;29;20371;-72
2023/04/19 09:16:53;;;;;;;5.93;3.78;;;;;;;13.13;41.62;102556.88;4901878;29;20046;-72
2023/04/19 09:19:19;;;;;;;6.10;3.38;;;;;;;13.13;40.84;102564.78;4868840;29;20032;-72
2023/04/19 09:21:45;;;;;;;5.70;4.18;;;;;;;13.13;40.45;102541.09;4900868;29;20095;-71
2023/04/19 09:24:11;;;;;;;10.43;3.80;;;;;;;13.07;40.58;102540.16;4910498;29;20047;-71
2023/04/19 09:26:36;;;;;;;5.60;4.00;;;;;;;13.30;43.57;102545.53;4868709;29;20135;-71
2023/04/19 09:29:06;;;;;;;5.78;3.55;;;;;;;13.29;41.94;102546.44;4911899;29;20119;-70
2023/04/19 09:44:23;;;;;;;6.05;3.78;;;;;;;12.88;42.22;102533.94;5473155;23;20399;-73
2023/04/19 09:52:25;;;;;;;7.78;4.13;;;;;;;13.16;41.25;102538.47;2343218;23;20052;-75
2023/04/19 09:54:52;;;;;;;7.13;3.83;;;;;;;13.05;42.87;102528.75;5098593;23;20056;-74
2023/04/19 10:02:53;;;;;;;5.93;3.10;;;;;;;12.83;41.33;102537.41;4956682;23;20072;31
2023/04/19 10:05:20;;;;;;;;;;;;;;;12.86;40.07;102559.34;5039631;23;20056;-70
2023/04/19 10:07:49;;;;;;;4.30;2.50;;;;;;;12.68;40.10;102563.59;5102256;23;19918;-71
2023/04/19 10:10:16;;;;;;;5.22;2.30;;;;;;;12.62;38.33;102534.66;5292717;23;20068;-72
2023/04/19 10:15:19;;;;;;;4.47;2.55;;;;;;;12.76;40.84;102532.13;5302239;23;20082;-67
2023/04/19 10:17:45;;;;;;;6.00;3.03;;;;;;;12.76;41.09;102532.97;5204004;23;20041;-72
2023/04/19 10:20:21;;;;;;;5.40;2.77;;;;;;;12.79;40.94;102521.59;5111314;23;1182470;-73
2023/04/19 10:22:47;;;;;;;5.07;2.30;;;;;;;12.97;42.07;102533.97;5102513;23;20291;-69
2023/04/19 10:25:14;;;;;;;2.75;2.13;;;;;;;12.87;37.49;102519.00;5040164;23;20486;-70
2023/04/19 10:27:45;;;;;;;5.15;2.33;;;;;;;12.71;36.75;102541.72;4898751;29;20484;-69
2023/04/19 10:30:31;;;;;;;6.63;2.95;;;;;;;12.76;38.10;102522.47;4898767;29;20044;-71
2023/04/19 10:32:58;;;;;;;5.95;2.40;;;;;;;12.79;38.67;102530.38;4882518;29;20055;-71
2023/04/19 10:35:34;;;;;;;5.10;2.35;;;;;;;12.87;40.78;102526.91;4898913;29;20140;-71
2023/04/19 10:38:11;;;;;;;5.07;1.80;;;;;;;12.93;37.47;102542.72;4915443;29;20494;-71
2023/04/19 10:41:02;;;;;;;4.65;2.08;;;;;;;13.09;39.62;102528.78;4913781;29;20559;-71
2023/04/19 10:43:34;;;;;;;3.78;1.80;;;;;;;13.09;36.25;102531.41;4902824;29;20436;-71
2023/04/19 10:46:19;;;;;;;4.32;1.75;;;;;;;13.12;36.95;102528.78;4862228;29;20044;-71
2023/04/19 10:48:56;;;;;;;4.60;2.25;;;;;;;13.09;36.53;102531.41;4896574;29;20271;-73
2023/04/19 10:51:27;;;;;;;4.85;1.80;;;;;;;13.09;36.82;102523.50;4903337;29;20048;-72
2023/04/19 10:53:55;;;;;;;6.45;1.90;;;;;;;13.03;35.24;102526.13;4898939;29;20100;-71
2023/04/19 10:56:41;;;;;;;4.80;1.85;;;;;;;13.04;37.54;102527.00;4897838;29;20051;-71
2023/04/19 10:59:10;;;;;;;3.20;2.10;;;;;;;13.06;38.26;102512.06;4903643;29;20574;-71
2023/04/19 11:01:43;;;;;;;4.40;2.22;;;;;;;13.26;39.76;102522.69;4885584;29;20041;-71
2023/04/19 11:04:16;;;;;;;3.35;2.67;;;;;;;13.43;39.99;102523.69;4900892;29;20036;-71
2023/04/19 11:06:51;;;;;;;12.40;3.28;;;;;;;13.39;39.27;102529.81;4885449;29;20046;-71
2023/04/19 11:09:33;;;;;;;6.78;2.50;;;;;;;13.46;39.17;102518.44;4890562;29;20073;-71
2023/04/19 11:12:07;;;;;;;3.75;2.00;;;;;;;13.32;39.61;102528.88;4903423;29;20484;-72
2023/04/19 11:14:43;;;;;;;3.97;2.60;;;;;;;13.28;39.48;102526.22;4900366;29;20032;-70
2023/04/19 11:17:18;;;;;;;3.65;2.70;;;;;;;13.49;39.22;102514.94;4898822;29;20031;-71
2023/04/19 11:19:57;;;;;;;5.65;3.13;;;;;;;13.56;40.64;102518.44;4904922;29;20032;-72
2023/04/19 11:22:30;;;;;;;3.57;2.27;;;;;;;13.50;38.07;102514.94;4895745;29;20028;-71
2023/04/19 11:24:55;;;;;;;4.88;2.30;;;;;;;13.36;37.34;102511.38;4890557;29;20117;-71
2023/04/19 11:27:20;;;;;;;4.70;2.15;;;;;;;13.49;38.51;102521.06;4879589;29;20493;-72
2023/04/19 11:29:46;;;;;;;5.70;2.25;;;;;;;13.43;41.20;102505.25;4881898;29;20132;-71
2023/04/19 11:32:11;;;;;;;3.50;2.38;;;;;;;13.48;38.21;102492.97;4872645;29;20100;-71
2023/04/19 11:34:40;;;;;;;5.20;2.60;;;;;;;13.64;37.65;102499.16;4857070;29;20040;-71
2023/04/19 11:37:06;;;;;;;4.90;2.33;;;;;;;13.59;37.09;102492.09;4879394;29;20135;-71
2023/04/19 11:39:32;;;;;;;5.40;2.50;;;;;;;13.74;38.45;102501.81;4882818;29;20468;-72
2023/04/19 11:41:58;;;;;;;4.38;2.63;;;;;;;13.65;36.38;102487.75;4898810;29;20511;-71
2023/04/19 11:44:24;;;;;;;7.13;2.58;;;;;;;13.74;37.73;102475.47;4862649;29;20036;-71
2023/04/19 11:47:06;;;;;;;5.03;2.70;;;;;;;13.78;36.30;102467.56;4898841;29;20048;-71